Time;durP1;ratioP1;P1;durP2;ratioP2;P2;SDS_P1;SDS_P2;PMS_P1;PMS_P2;Temp;Humidity;BMP_temperature;BMP_pressure;BME280_temperature;BME280_humidity;BME280_pressure;Samples;Min_cycle;Max_cycle;Signal;HPM_P1;HPM_P2
2021/03/03 00:01:50;;;;;;;1999.90;999.90;;;;;;;3.02;70.46;102684.84;15894369;28;20080;-64
2021/03/03 00:09:22;;;;;;;1999.90;999.90;;;;;;;2.93;70.27;102680.75;15886703;27;20055;-62
2021/03/03 00:16:54;;;;;;;1999.90;999.90;;;;;;;2.89;70.22;102689.47;15913553;27;20107;-63
2021/03/03 00:24:26;;;;;;;1999.90;999.90;;;;;;;2.96;69.71;102692.16;15903015;27;20065;-65
2021/03/03 00:31:58;;;;;;;1999.90;999.90;;;;;;;2.77;71.15;102691.34;15887106;27;20027;-66
2021/03/03 00:39:31;;;;;;;1999.90;999.90;;;;;;;2.73;70.80;102698.41;15881154;27;20464;-65
2021/03/03 00:47:02;;;;;;;1999.90;999.90;;;;;;;2.70;71.09;102687.84;15897787;27;20046;-64
2021/03/03 00:54:36;;;;;;;1999.90;999.90;;;;;;;2.60;71.62;102676.53;15900881;27;20420;-63
2021/03/03 01:02:07;;;;;;;;;;;;;;;2.58;71.22;102660.22;15907738;27;20036;-63
2021/03/03 01:09:40;;;;;;;1999.90;999.90;;;;;;;2.41;71.51;102652.84;15877396;27;20030;-64
2021/03/03 01:17:12;;;;;;;1999.90;999.90;;;;;;;2.37;71.30;102637.81;15910344;27;20040;-64
2021/03/03 01:24:46;;;;;;;1999.90;999.90;;;;;;;2.43;71.57;102621.22;15898150;27;20086;-63
2021/03/03 01:32:18;;;;;;;1999.90;999.90;;;;;;;2.39;71.40;102613.63;15883004;27;20040;-64
2021/03/03 01:39:50;;;;;;;1999.90;999.90;;;;;;;2.23;71.61;102606.84;15893389;27;20079;-64
2021/03/03 01:47:21;;;;;;;1999.90;999.90;;;;;;;2.40;70.28;102590.50;15910097;27;20043;-64
2021/03/03 01:54:53;;;;;;;1999.90;999.90;;;;;;;2.22;70.58;102591.41;15876997;27;20036;-64
2021/03/03 02:02:25;;;;;;;1999.90;999.90;;;;;;;2.02;71.32;102583.38;15892143;27;20118;-64
2021/03/03 02:10:03;;;;;;;1999.90;999.90;;;;;;;2.09;71.22;102570.38;15914425;27;20043;-64
2021/03/03 02:17:35;;;;;;;1999.90;999.90;;;;;;;1.95;71.71;102579.88;15905127;27;20147;-64
2021/03/03 02:25:14;;;;;;;1999.90;999.90;;;;;;;1.94;71.79;102567.16;15890951;27;20408;-64
2021/03/03 02:32:47;;;;;;;1999.90;999.90;;;;;;;2.18;71.44;102552.44;15900607;27;20447;-64
2021/03/03 02:40:20;;;;;;;1999.90;999.90;;;;;;;2.25;71.06;102544.94;15879628;27;20130;-64
2021/03/03 02:47:53;;;;;;;1999.90;999.90;;;;;;;2.11;71.02;102534.34;15892147;27;20093;-64
2021/03/03 02:55:27;;;;;;;1999.90;999.90;;;;;;;1.89;71.62;102525.75;15901544;27;20054;-64
2021/03/03 03:03:05;;;;;;;1999.90;999.90;;;;;;;2.10;70.83;102516.16;15903622;27;20188;-64
2021/03/03 03:10:37;;;;;;;1999.90;999.90;;;;;;;2.09;71.62;102496.03;15866346;28;20044;-64
2021/03/03 03:18:19;;;;;;;1999.90;999.90;;;;;;;1.97;71.33;102506.97;15882992;27;20074;-64
2021/03/03 03:25:53;;;;;;;1999.90;999.90;;;;;;;1.89;70.74;102514.72;15829366;22;20493;-62
2021/03/03 03:33:25;;;;;;;1999.90;999.90;;;;;;;1.70;70.94;102517.47;15719476;28;20261;-62
2021/03/03 03:40:58;;;;;;;1999.90;999.90;;;;;;;1.83;70.63;102508.22;15696406;28;20520;-62
2021/03/03 03:48:34;;;;;;;1999.90;999.90;;;;;;;1.60;71.02;102499.81;15717907;28;20064;-62
2021/03/03 03:56:08;;;;;;;1999.90;999.90;;;;;;;1.48;71.92;102497.00;15698694;28;20469;-60
2021/03/03 04:03:39;;;;;;;1999.90;999.90;;;;;;;1.54;70.91;102487.81;15696432;28;20047;-60
2021/03/03 04:11:12;;;;;;;1999.90;999.90;;;;;;;1.57;71.10;102492.03;15698634;28;20072;-59
2021/03/03 04:18:43;;;;;;;1999.90;999.90;;;;;;;1.55;70.75;102485.91;15716322;28;20083;-60
2021/03/03 04:26:15;;;;;;;1999.90;999.90;;;;;;;1.51;70.41;102492.94;15712590;28;20056;-59
2021/03/03 04:33:47;;;;;;;1999.90;999.90;;;;;;;1.60;70.28;102477.81;15695597;28;20079;-60
2021/03/03 04:41:20;;;;;;;1999.90;999.90;;;;;;;1.48;72.01;102480.50;15695168;28;20045;-62
2021/03/03 04:48:52;;;;;;;1999.90;999.90;;;;;;;1.53;71.87;102472.38;15702004;28;20067;-60
2021/03/03 04:56:25;;;;;;;1999.90;999.90;;;;;;;1.47;72.68;102478.81;15698656;28;20071;-59
2021/03/03 05:03:56;;;;;;;1999.90;999.90;;;;;;;1.13;72.33;102449.97;15685938;28;20120;-60
2021/03/03 05:11:29;;;;;;;1999.90;999.90;;;;;;;1.28;72.89;102444.13;15716633;28;20068;-61
2021/03/03 05:19:00;;;;;;;1999.90;999.90;;;;;;;1.31;74.19;102441.75;15721105;28;20089;-57
2021/03/03 05:26:33;;;;;;;1999.90;999.90;;;;;;;1.34;74.31;102457.78;15719982;28;20477;-57
2021/03/03 05:34:04;;;;;;;1999.90;999.90;;;;;;;1.43;74.52;102447.31;15726087;28;20369;-57
2021/03/03 05:41:37;;;;;;;1999.90;999.90;;;;;;;1.31;74.22;102462.91;15702303;28;20097;-59
2021/03/03 05:49:15;;;;;;;1999.90;999.90;;;;;;;1.32;73.95;102462.69;15724742;28;20055;-56
2021/03/03 05:56:49;;;;;;;1999.90;999.90;;;;;;;1.21;73.74;102446.09;15717197;28;20033;-55
2021/03/03 06:04:21;;;;;;;1999.90;999.90;;;;;;;1.18;74.62;102461.16;15662148;28;20052;-57
2021/03/03 06:11:55;;;;;;;1999.90;999.90;;;;;;;1.31;73.29;102451.91;15693519;28;20055;-58
2021/03/03 06:19:28;;;;;;;1999.90;999.90;;;;;;;1.43;73.56;102448.16;15727356;28;20085;-57
2021/03/03 06:27:02;;;;;;;1999.90;999.90;;;;;;;1.57;72.43;102443.34;15641856;28;20053;-58
2021/03/03 06:34:33;;;;;;;1999.90;999.90;;;;;;;1.67;72.18;102437.31;15690543;28;20565;-57
2021/03/03 06:42:08;;;;;;;1999.90;999.90;;;;;;;2.18;71.05;102414.72;15691304;28;20103;-59
2021/03/03 06:49:40;;;;;;;1999.90;999.90;;;;;;;2.13;71.53;102411.84;15720271;28;20036;-62
2021/03/03 06:57:14;;;;;;;1999.90;999.90;;;;;;;2.10;72.98;102400.47;15725193;28;20478;-61
2021/03/03 07:04:56;;;;;;;1999.90;999.90;;;;;;;2.58;71.71;102405.81;15740716;28;20076;-61
2021/03/03 07:12:30;;;;;;;1999.90;999.90;;;;;;;3.75;70.11;102423.03;15741863;28;20056;-60
2021/03/03 07:20:06;;;;;;;1999.90;999.90;;;;;;;4.25;67.33;102422.28;15739784;28;20053;-62
2021/03/03 07:27:43;;;;;;;1999.90;999.90;;;;;;;4.41;67.08;102419.81;15738671;28;20049;-60
2021/03/03 07:35:16;;;;;;;1999.90;999.90;;;;;;;4.72;66.32;102419.22;15737473;28;20043;-60
2021/03/03 07:42:53;;;;;;;1999.90;999.90;;;;;;;4.73;65.53;102423.66;15737841;28;20056;-61
2021/03/03 07:50:24;;;;;;;1999.90;999.90;;;;;;;4.21;68.32;102395.41;15737340;28;20056;-62
2021/03/03 07:57:59;;;;;;;1999.90;999.90;;;;;;;5.07;65.52;102394.00;15738755;28;20476;-60
2021/03/03 08:05:34;;;;;;;1999.90;999.90;;;;;;;4.99;64.68;102385.28;15691601;28;20041;-61
2021/03/03 08:13:08;;;;;;;1999.90;999.90;;;;;;;5.46;65.60;102385.66;15657748;28;20113;-61
2021/03/03 08:20:42;;;;;;;1999.90;999.90;;;;;;;6.61;62.28;102394.59;15674659;28;20045;-58
2021/03/03 08:28:39;;;;;;;1999.90;999.90;;;;;;;6.46;63.33;102392.53;15675076;28;20049;-60
2021/03/03 08:36:48;;;;;;;1999.90;999.90;;;;;;;7.12;61.76;102394.94;15646254;28;20056;-62
2021/03/03 08:44:21;;;;;;;1999.90;999.90;;;;;;;6.87;62.21;102390.88;15685946;28;20076;-57
2021/03/03 08:52:12;;;;;;;1999.90;999.90;;;;;;;5.71;67.02;102394.25;15687516;28;20389;-57
2021/03/03 08:59:44;;;;;;;1999.90;999.90;;;;;;;6.12;65.32;102394.72;15686983;28;20049;-61
2021/03/03 09:07:18;;;;;;;1999.90;999.90;;;;;;;5.91;66.76;102388.13;15684822;28;20045;-58
2021/03/03 09:14:54;;;;;;;1999.90;999.90;;;;;;;5.92;67.83;102375.94;15685134;28;20045;-58
2021/03/03 09:22:29;;;;;;;1999.90;999.90;;;;;;;6.98;65.12;102366.78;15705173;22;20724;-62
2021/03/03 09:30:01;;;;;;;1999.90;999.90;;;;;;;6.27;67.31;102380.16;15868731;28;20043;-61
2021/03/03 09:37:38;;;;;;;1999.90;999.90;;;;;;;7.45;66.23;102366.75;15848875;28;20504;-60
2021/03/03 09:45:31;;;;;;;1999.90;999.90;;;;;;;8.67;62.34;102368.91;15827093;28;20067;-60
2021/03/03 09:53:03;;;;;;;1999.90;999.90;;;;;;;8.70;61.56;102370.28;15832721;28;20067;-61
2021/03/03 10:00:37;;;;;;;1999.90;999.90;;;;;;;11.17;56.21;102351.41;15834677;28;20043;-64
2021/03/03 10:08:11;;;;;;;1999.90;999.90;;;;;;;12.61;52.15;102351.78;15850386;28;20116;-63
2021/03/03 10:15:44;;;;;;;1999.90;999.90;;;;;;;13.97;49.25;102341.72;15860267;28;20089;-62
2021/03/03 10:23:17;;;;;;;1999.90;999.90;;;;;;;15.46;46.14;102345.88;15848200;28;20147;-63
2021/03/03 10:30:52;;;;;;;1999.90;999.90;;;;;;;13.98;49.25;102340.56;15809924;28;20048;-62
2021/03/03 10:38:25;;;;;;;1999.90;999.90;;;;;;;16.67;43.86;102333.81;15789265;28;20076;-63
2021/03/03 10:46:09;;;;;;;1999.90;999.90;;;;;;;17.40;42.97;102328.06;15788997;28;20101;-62
2021/03/03 10:53:49;;;;;;;1999.90;999.90;;;;;;;18.38;41.69;102324.69;15806246;28;20047;-62
2021/03/03 11:19:43;;;;;;;1999.90;999.90;;;;;;;20.72;37.84;102281.56;15826058;28;20564;-64
2021/03/03 11:54:30;;;;;;;1999.90;999.90;;;;;;;22.36;34.82;102228.53;15811459;28;20024;-65
2021/03/03 12:02:01;;;;;;;1999.90;999.90;;;;;;;21.90;35.27;102215.03;15816074;28;20084;-65
2021/03/03 12:09:33;;;;;;;1999.90;999.90;;;;;;;23.26;33.59;102208.94;15838337;28;20044;-64
2021/03/03 12:17:05;;;;;;;1999.90;999.90;;;;;;;25.17;30.58;102192.28;15848846;28;20055;-64
2021/03/03 12:24:37;;;;;;;1999.90;999.90;;;;;;;23.91;32.01;102191.50;15844021;28;20512;-64
2021/03/03 12:32:08;;;;;;;1999.90;999.90;;;;;;;22.27;35.00;102185.28;15845209;28;20044;-65
2021/03/03 12:39:40;;;;;;;1999.90;999.90;;;;;;;20.56;38.65;102162.47;15825103;28;20072;-64
2021/03/03 12:47:12;;;;;;;1999.90;999.90;;;;;;;20.68;38.84;102156.69;15823846;28;20130;-64
2021/03/03 12:54:44;;;;;;;1999.90;999.90;;;;;;;25.07;32.68;102163.66;15866219;28;20039;-65
2021/03/03 13:02:15;;;;;;;1999.90;999.90;;;;;;;25.37;31.44;102147.09;15875358;28;20085;-64
2021/03/03 13:09:48;;;;;;;1999.90;999.90;;;;;;;25.56;31.18;102128.81;15857245;28;20044;-65
2021/03/03 13:17:19;;;;;;;1999.90;999.90;;;;;;;22.52;35.70;102115.47;15846793;28;20078;-65
2021/03/03 13:24:52;;;;;;;1999.90;999.90;;;;;;;19.96;40.10;102107.00;15853769;28;20040;-65
2021/03/03 13:32:24;;;;;;;1999.90;999.90;;;;;;;19.78;40.42;102087.50;15853045;28;20079;-67
2021/03/03 13:39:57;;;;;;;1999.90;999.90;;;;;;;21.62;37.52;102075.25;15831689;28;20118;-67
2021/03/03 13:47:28;;;;;;;1999.90;999.90;;;;;;;21.15;37.78;102058.41;15847083;28;20401;-67
2021/03/03 13:55:01;;;;;;;1999.90;999.90;;;;;;;20.73;38.20;102051.44;15852957;28;20187;-68
2021/03/03 14:02:33;;;;;;;1999.90;999.90;;;;;;;19.12;41.19;102044.75;15849347;28;20040;-68
2021/03/03 14:10:06;;;;;;;1999.90;999.90;;;;;;;18.37;42.70;102037.59;15872617;28;20079;-70
2021/03/03 14:17:39;;;;;;;1999.90;999.90;;;;;;;18.01;43.83;102029.13;15853841;28;20531;-67
2021/03/03 14:25:12;;;;;;;1999.90;999.90;;;;;;;18.08;43.52;102023.72;15854585;28;20051;-67
2021/03/03 14:32:44;;;;;;;1999.90;999.90;;;;;;;18.11;43.63;102014.53;15845750;28;20055;-69
2021/03/03 14:40:16;;;;;;;1999.90;999.90;;;;;;;17.72;44.08;102004.75;15870669;28;20055;-66
2021/03/03 14:47:48;;;;;;;1999.90;999.90;;;;;;;17.27;44.70;101992.25;15868932;28;20047;-66
2021/03/03 14:55:20;;;;;;;1999.90;999.90;;;;;;;17.24;45.20;101992.13;15851591;28;20070;-65
2021/03/03 15:02:52;;;;;;;1999.90;999.90;;;;;;;17.39;44.10;101968.88;15870084;28;20048;-63
2021/03/03 15:10:25;;;;;;;1999.90;999.90;;;;;;;17.07;43.63;101959.28;15869112;28;20472;-61
2021/03/03 15:17:57;;;;;;;1999.90;999.90;;;;;;;16.81;43.90;101951.09;15851122;28;20067;-62
2021/03/03 15:25:29;;;;;;;1999.90;999.90;;;;;;;16.64;43.86;101949.22;15847824;28;20044;-64
2021/03/03 15:33:01;;;;;;;1999.90;999.90;;;;;;;16.56;43.85;101936.00;15828589;28;20058;-64
2021/03/03 15:40:34;;;;;;;1999.90;999.90;;;;;;;16.38;44.23;101923.25;15843383;28;20059;-65
2021/03/03 15:48:07;;;;;;;1999.90;999.90;;;;;;;16.33;44.04;101917.81;15849587;28;20085;-64
2021/03/03 15:55:39;;;;;;;1999.90;999.90;;;;;;;16.28;44.22;101907.59;15822726;28;20382;-63
2021/03/03 16:03:10;;;;;;;1999.90;999.90;;;;;;;16.17;44.47;101898.72;15793860;28;20105;-63
2021/03/03 16:10:43;;;;;;;1999.90;999.90;;;;;;;15.89;45.51;101894.78;15824153;28;20561;-64
2021/03/03 16:18:14;;;;;;;1999.90;999.90;;;;;;;15.66;46.36;101888.63;15837455;28;20040;-64
2021/03/03 16:25:47;;;;;;;1999.90;999.90;;;;;;;15.25;47.47;101886.47;15854429;28;20123;-63
2021/03/03 16:33:18;;;;;;;1999.90;999.90;;;;;;;15.31;47.37;101865.41;15826232;28;20106;-64
2021/03/03 16:40:51;;;;;;;1999.90;999.90;;;;;;;15.10;47.49;101861.69;15823324;28;20055;-64
2021/03/03 16:48:22;;;;;;;1999.90;999.90;;;;;;;14.76;48.47;101855.03;15804464;28;20455;-64
2021/03/03 16:55:54;;;;;;;1999.90;999.90;;;;;;;14.48;49.44;101848.94;15814541;28;20530;-64
2021/03/03 17:03:28;;;;;;;1999.90;999.90;;;;;;;14.32;49.89;101847.78;15826361;28;20039;-64
2021/03/03 17:11:01;;;;;;;1999.90;999.90;;;;;;;13.89;51.05;101834.56;15820103;28;20076;-64
2021/03/03 17:18:32;;;;;;;1999.90;999.90;;;;;;;13.71;51.52;101833.72;15814360;28;20358;-64
2021/03/03 17:26:04;;;;;;;1999.90;999.90;;;;;;;13.60;52.29;101825.94;15795133;28;20071;-64
2021/03/03 17:33:38;;;;;;;1999.90;999.90;;;;;;;13.31;53.24;101830.13;15811511;28;20048;-64
2021/03/03 17:41:10;;;;;;;1999.90;999.90;;;;;;;13.45;53.37;101824.44;15849102;28;20052;-64
2021/03/03 17:48:43;;;;;;;1999.90;999.90;;;;;;;13.35;54.06;101819.94;15857826;28;20058;-64
2021/03/03 17:56:15;;;;;;;1999.90;999.90;;;;;;;13.24;54.70;101808.22;15832840;28;20040;-64
2021/03/03 18:03:47;;;;;;;1999.90;999.90;;;;;;;13.12;55.32;101802.34;15840432;28;20130;-64
2021/03/03 18:11:20;;;;;;;1999.90;999.90;;;;;;;13.06;55.47;101800.84;15866754;28;20050;-64
2021/03/03 18:18:51;;;;;;;1999.90;999.90;;;;;;;12.88;56.13;101799.94;15873146;28;20047;-64
2021/03/03 18:26:24;;;;;;;1999.90;999.90;;;;;;;12.70;56.64;101784.19;15873556;28;20047;-65
2021/03/03 18:33:55;;;;;;;1999.90;999.90;;;;;;;12.49;57.12;101769.09;15848254;28;20051;-67
2021/03/03 18:41:28;;;;;;;1999.90;999.90;;;;;;;12.49;57.12;101766.28;15860618;28;20130;-63
2021/03/03 18:49:01;;;;;;;1999.90;999.90;;;;;;;12.29;57.35;101756.44;15871037;28;20048;-62
2021/03/03 18:56:33;;;;;;;1999.90;999.90;;;;;;;12.23;57.68;101746.56;15869384;28;20042;-64
2021/03/03 19:04:05;;;;;;;1999.90;999.90;;;;;;;12.14;57.64;101738.09;15868896;28;20047;-64
2021/03/03 19:11:38;;;;;;;1999.90;999.90;;;;;;;11.87;58.37;101741.00;15855262;28;20051;-65
2021/03/03 19:19:10;;;;;;;1999.90;999.90;;;;;;;11.54;59.06;101733.63;15830261;28;20060;-64
2021/03/03 19:26:42;;;;;;;1999.90;999.90;;;;;;;11.37;58.97;101722.31;15869342;28;20519;-63
2021/03/03 19:34:13;;;;;;;1999.90;999.90;;;;;;;11.30;59.28;101716.31;15849807;28;20035;-61
2021/03/03 19:41:51;;;;;;;1999.90;999.90;;;;;;;11.34;59.31;101706.16;15868526;28;20047;-62
2021/03/03 19:49:27;;;;;;;1999.90;999.90;;;;;;;11.10;59.75;101705.59;15867835;28;20181;-63
2021/03/03 19:57:00;;;;;;;1999.90;999.90;;;;;;;11.15;59.68;101703.53;15870291;28;20047;-62
2021/03/03 20:04:31;;;;;;;1999.90;999.90;;;;;;;11.11;59.49;101702.47;15851703;28;20048;-62
2021/03/03 20:12:06;;;;;;;1999.90;999.90;;;;;;;11.05;59.68;101692.56;15864262;28;20070;-63
2021/03/03 20:19:38;;;;;;;1999.90;999.90;;;;;;;10.85;59.57;101685.47;15838364;28;20138;-64
2021/03/03 20:27:14;;;;;;;1999.90;999.90;;;;;;;10.91;59.92;101687.00;15782617;28;20052;-63
2021/03/03 20:34:46;;;;;;;1999.90;999.90;;;;;;;10.81;59.86;101675.22;15799695;28;20419;-60
2021/03/03 20:42:18;;;;;;;1999.90;999.90;;;;;;;10.73;60.48;101668.38;15799009;28;20751;-62
2021/03/03 20:49:50;;;;;;;1999.90;999.90;;;;;;;10.82;59.77;101669.31;15795793;28;20051;-63
2021/03/03 20:57:25;;;;;;;1999.90;999.90;;;;;;;10.94;59.49;101660.41;15818028;28;20105;-62
2021/03/03 21:04:59;;;;;;;1999.90;999.90;;;;;;;11.02;59.21;101665.25;15799032;28;20050;-64
2021/03/03 21:12:31;;;;;;;1999.90;999.90;;;;;;;10.88;59.88;101659.69;15811764;28;20048;-64
2021/03/03 21:20:04;;;;;;;1999.90;999.90;;;;;;;10.98;59.71;101647.47;15804991;28;20447;-64
2021/03/03 21:27:37;;;;;;;1999.90;999.90;;;;;;;11.11;59.57;101638.22;15836632;28;20067;-66
2021/03/03 21:35:12;;;;;;;1999.90;999.90;;;;;;;11.22;59.60;101642.44;15872269;28;20048;-65
2021/03/03 21:42:45;;;;;;;1999.90;999.90;;;;;;;11.09;59.83;101642.50;15873861;28;20051;-65
2021/03/03 21:50:17;;;;;;;1999.90;999.90;;;;;;;11.17;59.48;101636.16;15874550;28;20040;-66
2021/03/03 21:57:49;;;;;;;1999.90;999.90;;;;;;;11.06;60.35;101638.38;15842290;28;20044;-64
2021/03/03 22:05:21;;;;;;;1999.90;999.90;;;;;;;10.87;60.48;101635.72;15833152;28;20127;-64
2021/03/03 22:12:53;;;;;;;1999.90;999.90;;;;;;;10.81;60.99;101631.34;15868130;28;20060;-67
2021/03/03 22:20:25;;;;;;;1999.90;999.90;;;;;;;10.79;61.27;101621.66;15854390;28;20094;-67
2021/03/03 22:27:57;;;;;;;1999.90;999.90;;;;;;;10.65;61.50;101616.94;15871214;28;20153;-65
2021/03/03 22:35:29;;;;;;;1999.90;999.90;;;;;;;10.48;61.97;101611.13;15871484;28;20040;-65
2021/03/03 22:43:02;;;;;;;1999.90;999.90;;;;;;;10.36;62.51;101602.47;15872239;28;20044;-64
2021/03/03 22:50:33;;;;;;;1999.90;999.90;;;;;;;10.24;62.67;101608.56;15870530;28;20047;-64
2021/03/03 22:58:05;;;;;;;1999.90;999.90;;;;;;;10.39;61.98;101610.19;15870344;28;20039;-64
2021/03/03 23:05:37;;;;;;;1999.90;999.90;;;;;;;10.11;63.12;101612.16;15871091;28;20047;-64
2021/03/03 23:13:14;;;;;;;1999.90;999.90;;;;;;;10.04;63.13;101611.72;15852265;28;20047;-65
2021/03/03 23:20:46;;;;;;;1999.90;999.90;;;;;;;10.01;62.75;101603.97;15852589;28;20081;-65
2021/03/03 23:28:18;;;;;;;1999.90;999.90;;;;;;;9.85;63.99;101583.91;15870026;28;20103;-64
2021/03/03 23:35:50;;;;;;;1999.90;999.90;;;;;;;9.84;64.01;101574.72;15847749;28;20043;-65
2021/03/03 23:43:23;;;;;;;1999.90;999.90;;;;;;;9.72;64.47;101571.59;15865265;28;20043;-65
2021/03/03 23:50:55;;;;;;;1999.90;999.90;;;;;;;9.42;65.58;101569.34;15864737;28;20044;-65
2021/03/03 23:58:27;;;;;;;1999.90;999.90;;;;;;;9.24;66.29;101571.84;15864858;28;20044;-65
